sensor_id;sensor_type;location;lat;lon;timestamp;P1;durP1;ratioP1;P2;durP2;ratioP2
10535;SDS011;5316;49.538;8.352;2023-02-28T00:02:16;2.27;;;1.20;;
10535;SDS011;5316;49.538;8.352;2023-02-28T00:04:55;2.13;;;1.07;;
10535;SDS011;5316;49.538;8.352;2023-02-28T00:07:26;1.60;;;1.33;;
10535;SDS011;5316;49.538;8.352;2023-02-28T02:38:09;2.03;;;1.87;;
10535;SDS011;5316;49.538;8.352;2023-02-28T02:41:13;4.07;;;2.30;;
10535;SDS011;5316;49.538;8.352;2023-02-28T02:44:04;2.27;;;2.07;;
10535;SDS011;5316;49.538;8.352;2023-02-28T02:47:14;2.20;;;2.00;;
10535;SDS011;5316;49.538;8.352;2023-02-28T02:49:59;2.33;;;2.13;;
10535;SDS011;5316;49.538;8.352;2023-02-28T02:52:48;2.70;;;2.20;;
10535;SDS011;5316;49.538;8.352;2023-02-28T03:02:14;2.00;;;1.90;;
10535;SDS011;5316;49.538;8.352;2023-02-28T03:05:04;3.10;;;2.00;;
10535;SDS011;5316;49.538;8.352;2023-02-28T03:07:58;1.90;;;1.80;;
10535;SDS011;5316;49.538;8.352;2023-02-28T03:14:20;2.67;;;2.47;;
10535;SDS011;5316;49.538;8.352;2023-02-28T03:17:44;3.17;;;1.83;;
10535;SDS011;5316;49.538;8.352;2023-02-28T03:20:45;2.00;;;1.80;;
10535;SDS011;5316;49.538;8.352;2023-02-28T03:23:55;1.90;;;1.80;;
10535;SDS011;5316;49.538;8.352;2023-02-28T03:26:44;2.77;;;1.87;;
10535;SDS011;5316;49.538;8.352;2023-02-28T03:29:50;3.13;;;1.93;;
10535;SDS011;5316;49.538;8.352;2023-02-28T03:32:44;1.90;;;1.80;;
10535;SDS011;5316;49.538;8.352;2023-02-28T03:35:42;2.30;;;1.90;;
10535;SDS011;5316;49.538;8.352;2023-02-28T03:38:36;1.80;;;1.70;;
10535;SDS011;5316;49.538;8.352;2023-02-28T03:41:47;2.10;;;1.87;;
10535;SDS011;5316;49.538;8.352;2023-02-28T03:54:04;2.30;;;2.10;;
10535;SDS011;5316;49.538;8.352;2023-02-28T03:57:04;2.80;;;2.20;;
10535;SDS011;5316;49.538;8.352;2023-02-28T04:54:50;3.07;;;2.37;;
10535;SDS011;5316;49.538;8.352;2023-02-28T04:57:36;2.57;;;2.23;;
10535;SDS011;5316;49.538;8.352;2023-02-28T05:00:33;2.70;;;2.50;;
10535;SDS011;5316;49.538;8.352;2023-02-28T05:03:27;2.47;;;2.37;;
10535;SDS011;5316;49.538;8.352;2023-02-28T05:06:29;2.30;;;2.20;;
10535;SDS011;5316;49.538;8.352;2023-02-28T05:09:49;3.33;;;2.83;;
10535;SDS011;5316;49.538;8.352;2023-02-28T05:12:39;4.10;;;3.10;;
10535;SDS011;5316;49.538;8.352;2023-02-28T05:16:12;3.00;;;2.80;;
10535;SDS011;5316;49.538;8.352;2023-02-28T05:19:16;3.03;;;2.70;;
10535;SDS011;5316;49.538;8.352;2023-02-28T05:21:53;4.50;;;2.60;;
10535;SDS011;5316;49.538;8.352;2023-02-28T05:24:50;2.70;;;2.50;;
10535;SDS011;5316;49.538;8.352;2023-02-28T06:25:12;4.60;;;2.83;;
10535;SDS011;5316;49.538;8.352;2023-02-28T08:00:14;4.23;;;3.03;;
10535;SDS011;5316;49.538;8.352;2023-02-28T08:02:42;5.47;;;4.13;;
10535;SDS011;5316;49.538;8.352;2023-02-28T08:05:10;4.43;;;3.00;;
10535;SDS011;5316;49.538;8.352;2023-02-28T08:07:39;7.07;;;3.30;;
10535;SDS011;5316;49.538;8.352;2023-02-28T08:10:09;9.33;;;4.83;;
10535;SDS011;5316;49.538;8.352;2023-02-28T08:12:41;5.17;;;3.13;;
10535;SDS011;5316;49.538;8.352;2023-02-28T08:15:10;4.10;;;3.53;;
10535;SDS011;5316;49.538;8.352;2023-02-28T08:17:44;7.33;;;4.03;;
10535;SDS011;5316;49.538;8.352;2023-02-28T08:20:15;6.90;;;3.60;;
10535;SDS011;5316;49.538;8.352;2023-02-28T08:22:46;6.47;;;4.33;;
10535;SDS011;5316;49.538;8.352;2023-02-28T08:25:16;5.63;;;3.80;;
10535;SDS011;5316;49.538;8.352;2023-02-28T08:27:52;6.47;;;3.87;;
10535;SDS011;5316;49.538;8.352;2023-02-28T08:30:26;3.60;;;3.30;;
10535;SDS011;5316;49.538;8.352;2023-02-28T08:32:57;4.90;;;3.77;;
10535;SDS011;5316;49.538;8.352;2023-02-28T08:35:26;3.60;;;3.30;;
10535;SDS011;5316;49.538;8.352;2023-02-28T08:37:56;4.47;;;4.07;;
10535;SDS011;5316;49.538;8.352;2023-02-28T08:40:25;4.60;;;3.83;;
10535;SDS011;5316;49.538;8.352;2023-02-28T08:42:53;5.13;;;3.90;;
10535;SDS011;5316;49.538;8.352;2023-02-28T08:45:23;4.63;;;3.90;;
10535;SDS011;5316;49.538;8.352;2023-02-28T08:48:00;11.73;;;4.87;;
10535;SDS011;5316;49.538;8.352;2023-02-28T08:50:30;5.73;;;4.00;;
10535;SDS011;5316;49.538;8.352;2023-02-28T08:52:57;13.37;;;5.27;;
10535;SDS011;5316;49.538;8.352;2023-02-28T08:55:27;4.80;;;3.73;;
10535;SDS011;5316;49.538;8.352;2023-02-28T08:57:57;7.43;;;4.53;;
10535;SDS011;5316;49.538;8.352;2023-02-28T09:00:27;5.87;;;4.43;;
10535;SDS011;5316;49.538;8.352;2023-02-28T09:02:56;6.23;;;4.10;;
10535;SDS011;5316;49.538;8.352;2023-02-28T09:05:24;5.23;;;4.07;;
10535;SDS011;5316;49.538;8.352;2023-02-28T09:07:54;5.43;;;4.10;;
10535;SDS011;5316;49.538;8.352;2023-02-28T09:10:24;5.97;;;4.13;;
10535;SDS011;5316;49.538;8.352;2023-02-28T10:09:22;4.47;;;4.10;;
10535;SDS011;5316;49.538;8.352;2023-02-28T10:11:54;7.30;;;5.03;;
10535;SDS011;5316;49.538;8.352;2023-02-28T10:14:36;8.57;;;5.03;;
10535;SDS011;5316;49.538;8.352;2023-02-28T10:17:21;7.43;;;4.87;;
10535;SDS011;5316;49.538;8.352;2023-02-28T10:20:10;4.90;;;4.40;;
10535;SDS011;5316;49.538;8.352;2023-02-28T10:22:57;5.50;;;4.93;;
10535;SDS011;5316;49.538;8.352;2023-02-28T10:25:40;6.63;;;5.00;;
10535;SDS011;5316;49.538;8.352;2023-02-28T10:28:20;10.07;;;5.70;;
10535;SDS011;5316;49.538;8.352;2023-02-28T10:31:01;9.70;;;5.57;;
10535;SDS011;5316;49.538;8.352;2023-02-28T10:33:44;7.80;;;4.87;;
10535;SDS011;5316;49.538;8.352;2023-02-28T10:36:34;8.07;;;4.83;;
10535;SDS011;5316;49.538;8.352;2023-02-28T10:42:27;10.47;;;4.87;;
10535;SDS011;5316;49.538;8.352;2023-02-28T10:45:06;6.90;;;5.17;;
10535;SDS011;5316;49.538;8.352;2023-02-28T10:47:52;9.43;;;7.63;;
10535;SDS011;5316;49.538;8.352;2023-02-28T10:50:36;6.53;;;5.07;;
10535;SDS011;5316;49.538;8.352;2023-02-28T10:53:35;5.47;;;4.93;;
10535;SDS011;5316;49.538;8.352;2023-02-28T10:56:23;6.43;;;4.40;;
10535;SDS011;5316;49.538;8.352;2023-02-28T10:59:03;5.70;;;4.20;;
10535;SDS011;5316;49.538;8.352;2023-02-28T11:01:51;5.00;;;4.50;;
10535;SDS011;5316;49.538;8.352;2023-02-28T11:04:39;4.87;;;4.30;;
10535;SDS011;5316;49.538;8.352;2023-02-28T11:07:22;6.10;;;4.70;;
10535;SDS011;5316;49.538;8.352;2023-02-28T11:10:16;5.00;;;4.50;;
10535;SDS011;5316;49.538;8.352;2023-02-28T11:12:56;4.67;;;4.20;;
10535;SDS011;5316;49.538;8.352;2023-02-28T11:18:29;5.57;;;4.60;;
10535;SDS011;5316;49.538;8.352;2023-02-28T11:21:23;4.70;;;4.30;;
10535;SDS011;5316;49.538;8.352;2023-02-28T11:24:20;5.10;;;4.60;;
10535;SDS011;5316;49.538;8.352;2023-02-28T11:30:32;5.50;;;5.00;;
10535;SDS011;5316;49.538;8.352;2023-02-28T11:33:22;5.30;;;4.67;;
10535;SDS011;5316;49.538;8.352;2023-02-28T11:36:01;6.57;;;4.60;;
10535;SDS011;5316;49.538;8.352;2023-02-28T13:22:10;10.87;;;7.97;;
10535;SDS011;5316;49.538;8.352;2023-02-28T13:38:52;6.10;;;5.50;;
10535;SDS011;5316;49.538;8.352;2023-02-28T13:41:54;5.73;;;5.23;;
10535;SDS011;5316;49.538;8.352;2023-02-28T13:48:18;6.80;;;5.73;;
10535;SDS011;5316;49.538;8.352;2023-02-28T13:50:51;6.27;;;5.60;;
10535;SDS011;5316;49.538;8.352;2023-02-28T13:56:36;6.03;;;5.30;;
10535;SDS011;5316;49.538;8.352;2023-02-28T13:59:55;5.70;;;5.20;;
10535;SDS011;5316;49.538;8.352;2023-02-28T14:03:05;5.67;;;5.13;;
10535;SDS011;5316;49.538;8.352;2023-02-28T14:16:13;7.60;;;5.47;;
10535;SDS011;5316;49.538;8.352;2023-02-28T15:57:18;8.43;;;7.63;;
10535;SDS011;5316;49.538;8.352;2023-02-28T16:03:26;7.53;;;6.77;;
10535;SDS011;5316;49.538;8.352;2023-02-28T16:09:23;8.70;;;7.80;;
10535;SDS011;5316;49.538;8.352;2023-02-28T16:12:10;6.67;;;5.87;;
10535;SDS011;5316;49.538;8.352;2023-02-28T16:15:07;9.47;;;6.50;;
10535;SDS011;5316;49.538;8.352;2023-02-28T16:18:12;17.93;;;13.10;;
10535;SDS011;5316;49.538;8.352;2023-02-28T16:20:45;5.93;;;5.40;;
10535;SDS011;5316;49.538;8.352;2023-02-28T16:23:17;6.47;;;5.87;;
10535;SDS011;5316;49.538;8.352;2023-02-28T16:25:47;6.20;;;5.63;;
10535;SDS011;5316;49.538;8.352;2023-02-28T16:28:21;6.27;;;5.67;;
10535;SDS011;5316;49.538;8.352;2023-02-28T16:30:54;9.40;;;6.23;;
10535;SDS011;5316;49.538;8.352;2023-02-28T16:33:23;10.03;;;5.97;;
10535;SDS011;5316;49.538;8.352;2023-02-28T16:35:54;6.90;;;6.20;;
10535;SDS011;5316;49.538;8.352;2023-02-28T16:38:24;6.30;;;5.70;;
10535;SDS011;5316;49.538;8.352;2023-02-28T16:40:52;6.37;;;5.77;;
10535;SDS011;5316;49.538;8.352;2023-02-28T16:43:24;5.90;;;5.40;;
10535;SDS011;5316;49.538;8.352;2023-02-28T16:45:58;8.47;;;5.90;;
10535;SDS011;5316;49.538;8.352;2023-02-28T16:52:05;6.57;;;5.90;;
10535;SDS011;5316;49.538;8.352;2023-02-28T17:12:19;9.03;;;7.13;;
10535;SDS011;5316;49.538;8.352;2023-02-28T17:14:48;9.13;;;6.57;;
10535;SDS011;5316;49.538;8.352;2023-02-28T17:17:17;16.50;;;11.83;;
10535;SDS011;5316;49.538;8.352;2023-02-28T17:19:47;9.50;;;7.50;;
10535;SDS011;5316;49.538;8.352;2023-02-28T17:23:00;12.17;;;7.33;;
10535;SDS011;5316;49.538;8.352;2023-02-28T17:26:04;10.03;;;7.47;;
10535;SDS011;5316;49.538;8.352;2023-02-28T17:29:12;14.80;;;8.63;;
10535;SDS011;5316;49.538;8.352;2023-02-28T17:31:46;13.77;;;8.03;;
10535;SDS011;5316;49.538;8.352;2023-02-28T17:34:33;13.80;;;8.33;;
10535;SDS011;5316;49.538;8.352;2023-02-28T17:37:03;9.27;;;6.83;;
10535;SDS011;5316;49.538;8.352;2023-02-28T17:40:13;13.57;;;7.17;;
10535;SDS011;5316;49.538;8.352;2023-02-28T18:57:34;9.30;;;6.90;;
10535;SDS011;5316;49.538;8.352;2023-02-28T19:00:15;10.83;;;7.50;;
10535;SDS011;5316;49.538;8.352;2023-02-28T19:03:03;13.03;;;9.27;;
10535;SDS011;5316;49.538;8.352;2023-02-28T19:05:40;14.90;;;10.73;;
10535;SDS011;5316;49.538;8.352;2023-02-28T19:08:20;9.53;;;8.00;;
10535;SDS011;5316;49.538;8.352;2023-02-28T19:10:53;14.43;;;11.63;;
10535;SDS011;5316;49.538;8.352;2023-02-28T19:16:46;13.97;;;12.03;;
10535;SDS011;5316;49.538;8.352;2023-02-28T19:19:27;14.53;;;11.23;;
10535;SDS011;5316;49.538;8.352;2023-02-28T19:21:57;12.77;;;11.00;;
10535;SDS011;5316;49.538;8.352;2023-02-28T19:24:45;15.10;;;9.90;;
10535;SDS011;5316;49.538;8.352;2023-02-28T19:27:15;11.70;;;9.63;;
10535;SDS011;5316;49.538;8.352;2023-02-28T19:29:52;12.47;;;8.43;;
10535;SDS011;5316;49.538;8.352;2023-02-28T19:32:36;8.90;;;6.83;;
10535;SDS011;5316;49.538;8.352;2023-02-28T19:35:25;13.13;;;7.07;;
10535;SDS011;5316;49.538;8.352;2023-02-28T19:37:55;7.73;;;6.40;;
10535;SDS011;5316;49.538;8.352;2023-02-28T19:40:23;9.17;;;6.67;;
10535;SDS011;5316;49.538;8.352;2023-02-28T19:42:51;7.47;;;6.67;;
10535;SDS011;5316;49.538;8.352;2023-02-28T19:45:20;11.43;;;6.20;;
10535;SDS011;5316;49.538;8.352;2023-02-28T19:47:53;8.60;;;7.07;;
10535;SDS011;5316;49.538;8.352;2023-02-28T19:50:32;8.90;;;6.93;;
10535;SDS011;5316;49.538;8.352;2023-02-28T19:53:04;8.67;;;6.47;;
10535;SDS011;5316;49.538;8.352;2023-02-28T19:55:41;7.43;;;6.27;;
10535;SDS011;5316;49.538;8.352;2023-02-28T19:58:17;11.40;;;7.07;;
10535;SDS011;5316;49.538;8.352;2023-02-28T20:08:04;10.23;;;7.00;;
10535;SDS011;5316;49.538;8.352;2023-02-28T20:10:33;8.80;;;7.00;;
10535;SDS011;5316;49.538;8.352;2023-02-28T20:13:03;7.33;;;6.53;;
10535;SDS011;5316;49.538;8.352;2023-02-28T20:15:36;8.40;;;6.27;;
10535;SDS011;5316;49.538;8.352;2023-02-28T20:18:17;7.60;;;6.80;;
10535;SDS011;5316;49.538;8.352;2023-02-28T20:21:24;7.47;;;6.27;;
10535;SDS011;5316;49.538;8.352;2023-02-28T20:27:51;13.03;;;7.90;;
10535;SDS011;5316;49.538;8.352;2023-02-28T20:30:23;11.03;;;8.37;;
10535;SDS011;5316;49.538;8.352;2023-02-28T20:33:13;7.70;;;6.60;;
10535;SDS011;5316;49.538;8.352;2023-02-28T20:36:00;11.33;;;7.00;;
10535;SDS011;5316;49.538;8.352;2023-02-28T20:38:29;8.53;;;6.53;;
10535;SDS011;5316;49.538;8.352;2023-02-28T20:41:02;9.10;;;6.50;;
10535;SDS011;5316;49.538;8.352;2023-02-28T20:43:32;8.10;;;6.07;;
10535;SDS011;5316;49.538;8.352;2023-02-28T20:46:00;8.77;;;5.87;;
10535;SDS011;5316;49.538;8.352;2023-02-28T20:48:30;6.43;;;5.80;;
10535;SDS011;5316;49.538;8.352;2023-02-28T21:47:57;9.83;;;6.77;;
10535;SDS011;5316;49.538;8.352;2023-02-28T21:50:25;7.33;;;6.50;;
10535;SDS011;5316;49.538;8.352;2023-02-28T21:55:51;8.70;;;6.30;;
10535;SDS011;5316;49.538;8.352;2023-02-28T21:58:19;8.77;;;7.33;;
10535;SDS011;5316;49.538;8.352;2023-02-28T22:00:47;7.53;;;6.03;;
10535;SDS011;5316;49.538;8.352;2023-02-28T22:03:16;7.67;;;6.63;;
10535;SDS011;5316;49.538;8.352;2023-02-28T22:18:42;10.73;;;7.83;;
10535;SDS011;5316;49.538;8.352;2023-02-28T22:21:11;12.17;;;7.50;;
10535;SDS011;5316;49.538;8.352;2023-02-28T22:23:45;7.77;;;6.47;;
10535;SDS011;5316;49.538;8.352;2023-02-28T22:26:20;8.97;;;7.03;;
10535;SDS011;5316;49.538;8.352;2023-02-28T22:28:49;8.77;;;7.30;;
10535;SDS011;5316;49.538;8.352;2023-02-28T22:31:19;9.17;;;7.17;;
10535;SDS011;5316;49.538;8.352;2023-02-28T22:34:05;9.97;;;7.30;;
10535;SDS011;5316;49.538;8.352;2023-02-28T22:36:52;11.40;;;7.33;;
10535;SDS011;5316;49.538;8.352;2023-02-28T22:39:27;11.17;;;7.23;;
10535;SDS011;5316;49.538;8.352;2023-02-28T22:41:59;7.70;;;6.90;;
10535;SDS011;5316;49.538;8.352;2023-02-28T22:44:27;9.60;;;7.13;;
10535;SDS011;5316;49.538;8.352;2023-02-28T22:52:13;9.63;;;7.00;;
10535;SDS011;5316;49.538;8.352;2023-02-28T22:57:42;8.57;;;7.13;;
10535;SDS011;5316;49.538;8.352;2023-02-28T23:00:10;10.50;;;7.87;;
10535;SDS011;5316;49.538;8.352;2023-02-28T23:02:40;8.17;;;7.23;;
10535;SDS011;5316;49.538;8.352;2023-02-28T23:05:13;8.53;;;6.93;;
10535;SDS011;5316;49.538;8.352;2023-02-28T23:07:45;9.13;;;6.90;;
10535;SDS011;5316;49.538;8.352;2023-02-28T23:10:16;7.87;;;7.07;;
10535;SDS011;5316;49.538;8.352;2023-02-28T23:12:45;10.30;;;7.70;;
10535;SDS011;5316;49.538;8.352;2023-02-28T23:15:19;9.83;;;7.13;;
10535;SDS011;5316;49.538;8.352;2023-02-28T23:17:48;8.63;;;6.90;;
10535;SDS011;5316;49.538;8.352;2023-02-28T23:20:20;9.30;;;7.70;;
10535;SDS011;5316;49.538;8.352;2023-02-28T23:22:47;10.40;;;7.93;;
10535;SDS011;5316;49.538;8.352;2023-02-28T23:25:20;8.27;;;7.27;;
10535;SDS011;5316;49.538;8.352;2023-02-28T23:27:49;8.37;;;7.13;;
10535;SDS011;5316;49.538;8.352;2023-02-28T23:30:16;11.00;;;8.10;;
10535;SDS011;5316;49.538;8.352;2023-02-28T23:32:54;9.67;;;8.30;;
10535;SDS011;5316;49.538;8.352;2023-02-28T23:35:32;9.37;;;7.63;;
10535;SDS011;5316;49.538;8.352;2023-02-28T23:38:04;11.73;;;8.10;;
10535;SDS011;5316;49.538;8.352;2023-02-28T23:40:33;9.20;;;7.77;;
10535;SDS011;5316;49.538;8.352;2023-02-28T23:43:01;10.30;;;8.13;;
10535;SDS011;5316;49.538;8.352;2023-02-28T23:45:28;9.43;;;7.37;;
10535;SDS011;5316;49.538;8.352;2023-02-28T23:48:06;10.63;;;8.00;;
10535;SDS011;5316;49.538;8.352;2023-02-28T23:50:38;9.37;;;7.60;;
10535;SDS011;5316;49.538;8.352;2023-02-28T23:53:08;9.63;;;7.30;;
10535;SDS011;5316;49.538;8.352;2023-02-28T23:55:48;11.10;;;8.33;;
10535;SDS011;5316;49.538;8.352;2023-02-28T23:58:17;9.50;;;8.00;;
